Time;durP1;ratioP1;P1;durP2;ratioP2;P2;SDS_P1;SDS_P2;PMS_P1;PMS_P2;Temp;Humidity;BMP_temperature;BMP_pressure;BME280_temperature;BME280_humidity;BME280_pressure;Samples;Min_cycle;Max_cycle;Signal;HPM_P1;HPM_P2
2022/12/22 03:26:20;;;;;;;50.30;26.10;;;;;;;-2.04;100.00;100116.03;5015172;28;20045;-76
2022/12/22 03:28:45;;;;;;;51.10;27.48;;;;;;;-1.35;100.00;100233.13;4997812;28;20033;-77
2022/12/22 03:31:11;;;;;;;50.17;29.88;;;;;;;-1.77;100.00;100145.75;4997715;28;20038;-77
2022/12/22 03:33:37;;;;;;;50.20;27.55;;;;;;;-1.22;100.00;100247.53;5013261;28;20595;-76
2022/12/22 03:36:04;;;;;;;49.33;27.92;;;;;;;-2.21;100.00;100111.44;5014677;28;20037;-75
2022/12/22 03:38:30;;;;;;;51.95;29.30;;;;;;;-1.77;100.00;100186.44;5014218;28;20045;-75
2022/12/22 03:40:55;;;;;;;54.55;30.70;;;;;;;-1.18;100.00;100255.13;4996968;28;20034;-75
2022/12/22 03:51:46;;;;;;;45.63;28.08;;;;;;;-1.63;100.00;100229.13;5015127;28;20048;-76
2022/12/22 03:54:14;;;;;;;46.75;28.00;;;;;;;-1.81;100.00;100189.66;4993128;28;20149;-76
2022/12/22 03:56:40;;;;;;;46.20;28.23;;;;;;;-1.50;100.00;100243.56;5015219;28;20046;-76
2022/12/22 03:59:05;;;;;;;46.03;28.40;;;;;;;-2.12;100.00;100119.97;5013790;28;20038;-77
2022/12/22 04:01:35;;;;;;;55.33;31.98;;;;;;;-1.90;100.00;100159.53;5014395;28;20056;-77
2022/12/22 04:04:01;;;;;;;48.63;30.40;;;;;;;-1.39;100.00;100229.72;5012843;28;20030;-77
2022/12/22 04:06:26;;;;;;;52.03;31.60;;;;;;;-1.69;100.00;100238.09;4996714;28;20566;-77
2022/12/22 04:08:52;;;;;;;44.95;27.77;;;;;;;-2.09;100.00;100154.91;5013871;28;20058;-75
2022/12/22 04:14:02;;;;;;;46.78;28.60;;;;;;;-1.47;100.00;100225.34;5013833;28;20511;-75
2022/12/22 04:16:28;;;;;;;52.67;31.60;;;;;;;-1.72;100.00;100228.06;5013471;28;20049;-75
2022/12/22 04:18:54;;;;;;;57.83;35.30;;;;;;;-1.66;100.00;100188.34;5013559;28;20065;-76
2022/12/22 04:21:19;;;;;;;64.03;39.70;;;;;;;-1.48;100.00;100211.19;4996352;28;20124;-76
2022/12/22 04:23:44;;;;;;;58.72;35.33;;;;;;;-1.55;100.00;100225.16;5012999;28;20034;-76
2022/12/22 04:26:12;;;;;;;51.38;32.25;;;;;;;-1.78;100.00;100159.84;5014082;28;20108;-76
2022/12/22 04:28:37;;;;;;;52.72;32.72;;;;;;;-2.15;100.00;100087.53;5013666;28;20046;-77
2022/12/22 04:31:03;;;;;;;53.58;32.42;;;;;;;-0.89;100.00;100146.88;4996017;28;20033;-76
2022/12/22 04:33:28;;;;;;;96.82;53.78;;;;;;;-1.11;100.00;100219.53;5013869;28;20037;-79
2022/12/22 04:35:54;;;;;;;121.43;71.45;;;;;;;-0.97;100.00;100214.88;4996438;28;20048;-78
2022/12/22 04:38:19;;;;;;;96.97;63.65;;;;;;;-1.42;100.00;100213.81;4995914;28;20041;-78
2022/12/22 04:40:44;;;;;;;110.13;72.60;;;;;;;-1.52;100.00;100217.75;5013863;28;20521;-77
2022/12/22 04:43:10;;;;;;;98.78;63.53;;;;;;;-1.99;100.00;100185.84;4996332;28;20096;-79
2022/12/22 04:45:35;;;;;;;89.07;56.60;;;;;;;-2.44;100.00;100135.75;5014126;28;20037;-78
2022/12/22 04:48:00;;;;;;;78.85;48.10;;;;;;;-2.25;100.00;100087.28;5012555;28;20038;-76
2022/12/22 04:50:26;;;;;;;70.65;44.67;;;;;;;-1.77;100.00;100211.34;5013589;28;20408;-75
2022/12/22 04:52:53;;;;;;;60.38;35.85;;;;;;;-2.35;100.00;100091.19;5013037;28;20451;-76
2022/12/22 04:55:20;;;;;;;53.97;33.00;;;;;;;-2.10;100.00;100130.00;4994926;28;20136;-77
2022/12/22 04:57:45;;;;;;;53.60;33.95;;;;;;;-3.16;100.00;100036.81;4995445;28;20034;-75
2022/12/22 05:00:11;;;;;;;56.28;31.35;;;;;;;-0.80;100.00;100115.44;5013333;28;20504;-71
2022/12/22 05:02:37;;;;;;;60.70;34.78;;;;;;;-1.21;100.00;100216.81;5013243;28;20065;-75
2022/12/22 05:05:02;;;;;;;56.90;31.80;;;;;;;-2.29;100.00;100073.06;4999846;28;20042;-76
2022/12/22 05:07:28;;;;;;;56.92;32.42;;;;;;;-1.95;100.00;100135.31;4995635;28;20045;-75
2022/12/22 05:09:53;;;;;;;55.78;33.00;;;;;;;-1.70;100.00;100212.31;5012965;28;20057;-75
2022/12/22 05:15:10;;;;;;;61.42;35.80;;;;;;;-2.07;100.00;100137.53;5013140;28;20113;-76
2022/12/22 05:17:36;;;;;;;59.75;34.05;;;;;;;-2.21;100.00;100119.75;5012309;28;20046;-75
2022/12/22 05:20:01;;;;;;;57.40;35.45;;;;;;;-2.06;100.00;100114.31;4995168;28;20029;-76
2022/12/22 05:22:27;;;;;;;55.33;33.92;;;;;;;-2.28;100.00;100070.66;5012899;28;20420;-76
2022/12/22 05:24:52;;;;;;;55.55;35.25;;;;;;;-1.87;100.00;100194.50;4995385;28;20487;-76
2022/12/22 05:27:18;;;;;;;63.85;41.55;;;;;;;-2.16;100.00;100134.81;4995097;28;20046;-77
2022/12/22 05:29:43;;;;;;;75.88;45.63;;;;;;;-2.23;100.00;100130.47;5013199;28;20526;-77
2022/12/22 05:32:10;;;;;;;67.18;43.15;;;;;;;-1.99;100.00;100131.94;5013214;28;20088;-75
2022/12/22 05:34:35;;;;;;;73.82;46.60;;;;;;;-2.27;100.00;100131.19;4994894;28;20165;-75
2022/12/22 05:37:00;;;;;;;75.95;45.80;;;;;;;-1.98;100.00;100193.38;4995423;28;20140;-75
2022/12/22 05:39:26;;;;;;;63.95;40.50;;;;;;;-2.52;100.00;100075.00;4978353;28;20510;-76
2022/12/22 05:41:51;;;;;;;60.55;38.80;;;;;;;-1.69;100.00;100198.22;5011237;28;20041;-75
2022/12/22 05:44:17;;;;;;;59.42;36.78;;;;;;;-2.49;100.00;100077.56;5012561;28;20127;-75
2022/12/22 05:46:42;;;;;;;62.17;38.63;;;;;;;-2.20;100.00;100128.88;4994828;28;20427;-74
2022/12/22 05:49:07;;;;;;;67.22;42.35;;;;;;;-1.39;100.00;100211.41;5012122;28;20042;-74
2022/12/22 05:51:33;;;;;;;66.38;45.03;;;;;;;-1.98;100.00;100228.22;4994696;28;20033;-75
2022/12/22 05:53:58;;;;;;;68.50;43.33;;;;;;;-2.01;100.00;100227.31;4994348;28;20033;-75
2022/12/22 05:56:24;;;;;;;76.75;48.80;;;;;;;-2.07;100.00;100173.22;4994107;28;20397;-74
2022/12/22 05:58:50;;;;;;;90.03;52.95;;;;;;;-1.85;100.00;100227.75;4994445;28;20128;-74
2022/12/22 06:01:16;;;;;;;89.53;52.42;;;;;;;-1.72;100.00;100223.06;5012163;28;20045;-74
2022/12/22 06:03:41;;;;;;;91.43;52.65;;;;;;;-2.22;100.00;100164.53;4994308;28;20041;-74
2022/12/22 06:06:08;;;;;;;89.85;50.83;;;;;;;-2.06;100.00;100182.38;5011686;28;20121;-74
2022/12/22 06:08:35;;;;;;;92.50;51.17;;;;;;;-2.40;100.00;100151.59;4994273;28;20052;-75
2022/12/22 06:11:00;;;;;;;87.53;47.00;;;;;;;-2.32;100.00;100157.63;4994215;28;20042;-74
2022/12/22 06:13:25;;;;;;;75.10;39.60;;;;;;;-2.45;100.00;100196.25;4993352;28;20542;-75
2022/12/22 06:15:51;;;;;;;71.28;37.50;;;;;;;-1.99;100.00;100258.06;4994350;28;20125;-74
2022/12/22 06:18:17;;;;;;;74.75;38.35;;;;;;;-2.46;100.00;100153.94;5011665;28;20045;-74
2022/12/22 06:20:45;;;;;;;86.18;40.60;;;;;;;-1.94;100.00;100246.59;5011841;28;20042;-75
2022/12/22 06:23:13;;;;;;;79.78;38.45;;;;;;;-1.66;100.00;100253.13;5012607;28;20496;-74
2022/12/22 06:25:39;;;;;;;96.82;41.08;;;;;;;-2.46;100.00;100119.94;4994248;28;20080;-74
2022/12/22 06:28:04;;;;;;;93.97;42.47;;;;;;;-1.91;100.00;100244.19;5010549;28;20049;-74
2022/12/22 06:30:30;;;;;;;96.05;42.80;;;;;;;-1.62;100.00;100237.44;5012017;28;20038;-75
2022/12/22 06:32:55;;;;;;;126.22;58.78;;;;;;;-1.31;100.00;100247.34;4993774;28;20416;-75
2022/12/22 06:35:21;;;;;;;127.03;65.57;;;;;;;-1.10;100.00;100232.88;5012134;28;20121;-74
2022/12/22 06:37:46;;;;;;;118.00;61.63;;;;;;;-0.84;100.00;100244.25;5011018;28;20110;-74
2022/12/22 06:40:12;;;;;;;102.63;53.80;;;;;;;-0.46;100.00;100240.91;5011059;28;20044;-74
2022/12/22 06:45:21;;;;;;;78.63;43.38;;;;;;;-0.27;100.00;100257.09;5011788;28;20626;-74
2022/12/22 06:47:46;;;;;;;80.03;45.35;;;;;;;-0.35;100.00;100256.94;5010761;28;20125;-74
2022/12/22 06:50:12;;;;;;;92.07;49.70;;;;;;;-0.48;100.00;100167.66;5011011;28;20033;-75
2022/12/22 06:52:38;;;;;;;102.90;54.15;;;;;;;0.38;100.00;100250.78;5010260;28;20038;-74
2022/12/22 06:55:04;;;;;;;120.47;67.03;;;;;;;0.75;100.00;100248.09;4994237;28;20041;-75
2022/12/22 06:57:29;;;;;;;110.47;62.97;;;;;;;-0.18;100.00;100112.44;5009125;28;20064;-76
2022/12/22 06:59:55;;;;;;;129.70;72.85;;;;;;;0.25;100.00;100183.94;4993520;28;20057;-75
2022/12/22 07:02:20;;;;;;;153.70;88.00;;;;;;;0.62;100.00;100168.69;4993736;28;20034;-81
2022/12/22 07:04:45;;;;;;;151.80;92.63;;;;;;;0.44;100.00;100254.25;5011511;28;20500;-78
2022/12/22 07:07:11;;;;;;;141.60;89.45;;;;;;;0.20;100.00;100210.50;5011026;28;20440;-76
2022/12/22 07:09:36;;;;;;;126.75;79.10;;;;;;;-0.49;100.00;100177.59;4993887;28;20042;-75
2022/12/22 07:12:02;;;;;;;134.60;86.30;;;;;;;0.33;100.00;100215.75;4990326;28;20105;-77
2022/12/22 07:14:28;;;;;;;139.18;92.05;;;;;;;0.51;100.00;100206.03;4992632;28;20505;-76
2022/12/22 07:16:55;;;;;;;120.15;79.90;;;;;;;0.32;100.00;100183.22;5004438;28;20042;-77
2022/12/22 07:19:20;;;;;;;125.47;79.93;;;;;;;0.73;100.00;100287.25;5012965;28;20077;-75
2022/12/22 07:21:50;;;;;;;120.55;79.05;;;;;;;0.25;100.00;100189.78;5012762;28;20038;-78
2022/12/22 07:24:21;;;;;;;110.38;70.55;;;;;;;0.75;100.00;100241.41;4997590;28;20042;-76
2022/12/22 07:26:47;;;;;;;97.88;67.43;;;;;;;0.03;100.00;100191.88;4997852;28;20038;-77
2022/12/22 07:29:12;;;;;;;99.07;68.53;;;;;;;0.57;100.00;100267.81;5014036;28;20041;-77
2022/12/22 07:31:38;;;;;;;93.15;63.47;;;;;;;0.26;100.00;100206.44;4981783;28;20492;-77
2022/12/22 07:34:04;;;;;;;83.50;57.15;;;;;;;0.56;100.00;100231.94;5009489;28;20053;-78
2022/12/22 07:36:29;;;;;;;91.55;58.08;;;;;;;0.72;100.00;100208.00;4991760;28;20427;-76
2022/12/22 07:38:54;;;;;;;99.95;66.57;;;;;;;0.39;100.00;100200.00;5014019;28;20108;-74
2022/12/22 07:44:04;;;;;;;57.50;40.88;;;;;;;0.65;100.00;100174.56;5008962;28;20044;-77
2022/12/22 07:46:33;;;;;;;52.78;36.15;;;;;;;0.79;100.00;100174.78;5007945;28;20034;-75
2022/12/22 07:51:43;;;;;;;54.03;36.42;;;;;;;1.46;100.00;100242.44;5014018;28;20057;-75
2022/12/22 07:54:12;;;;;;;46.97;33.38;;;;;;;1.39;100.00;100255.69;5014193;28;20053;-80
2022/12/22 07:56:38;;;;;;;51.03;35.78;;;;;;;1.26;100.00;100193.78;4989965;28;20057;-77
2022/12/22 07:59:04;;;;;;;56.20;37.72;;;;;;;0.42;100.00;100262.53;4995246;28;20033;-81
2022/12/22 08:01:29;;;;;;;54.03;37.22;;;;;;;0.19;100.00;100248.78;4997413;28;20579;-80
2022/12/22 08:03:55;;;;;;;56.13;35.97;;;;;;;1.11;100.00;100257.81;5011205;28;20140;-82
2022/12/22 08:06:21;;;;;;;53.80;35.90;;;;;;;1.07;100.00;100216.84;5011961;28;20063;-82
2022/12/22 08:08:46;;;;;;;55.90;38.95;;;;;;;0.77;100.00;100251.47;5005353;28;20057;-81
2022/12/22 08:11:12;;;;;;;57.17;37.78;;;;;;;0.64;100.00;100189.53;5005391;28;20144;-83
2022/12/22 08:13:37;;;;;;;54.00;38.05;;;;;;;0.72;100.00;100258.03;5013855;28;20038;-78
2022/12/22 08:16:07;;;;;;;59.30;38.47;;;;;;;1.13;100.00;100201.09;5013608;28;20118;-81
2022/12/22 08:18:34;;;;;;;57.75;40.63;;;;;;;1.12;100.00;100240.31;5012557;28;20041;-81
2022/12/22 08:20:59;;;;;;;65.18;42.65;;;;;;;1.57;100.00;100162.41;5013910;28;20041;-77
2022/12/22 08:23:24;;;;;;;65.68;43.65;;;;;;;1.50;100.00;100233.28;4996822;28;20096;-80
2022/12/22 08:25:59;;;;;;;51.47;36.72;;;;;;;1.28;100.00;100164.59;4995988;28;20081;-81
2022/12/22 08:28:25;;;;;;;53.50;36.53;;;;;;;0.81;100.00;100166.47;4994871;28;20053;-80
2022/12/22 08:30:50;;;;;;;57.90;37.92;;;;;;;0.98;100.00;100168.34;4998813;28;20054;-75
2022/12/22 08:33:16;;;;;;;60.63;40.42;;;;;;;1.04;100.00;100189.31;4976636;28;20100;-79
2022/12/22 08:35:42;;;;;;;58.53;38.38;;;;;;;1.79;100.00;100241.97;4993879;28;20568;-78
2022/12/22 08:38:11;;;;;;;71.70;36.03;;;;;;;3.30;100.00;100228.19;4976685;28;20042;-80
2022/12/22 08:40:37;;;;;;;125.75;47.47;;;;;;;3.84;100.00;100185.69;4993714;28;20034;-79
2022/12/22 08:43:08;;;;;;;106.13;44.47;;;;;;;3.68;100.00;100218.31;4993414;28;20049;-81
2022/12/22 08:45:33;;;;;;;95.60;36.17;;;;;;;4.02;100.00;100212.53;4992478;28;20046;-82
2022/12/22 08:47:58;;;;;;;93.28;42.67;;;;;;;3.24;100.00;100223.97;4976651;28;20396;-73
2022/12/22 08:50:24;;;;;;;71.93;45.47;;;;;;;2.20;100.00;100149.66;4993266;28;20050;-82
2022/12/22 08:52:49;;;;;;;68.70;43.22;;;;;;;1.18;100.00;100131.91;4994761;28;20038;-78
2022/12/22 08:55:15;;;;;;;69.72;44.33;;;;;;;1.10;100.00;100206.91;5013600;28;20642;-80
2022/12/22 08:57:40;;;;;;;78.72;48.72;;;;;;;0.99;100.00;100075.78;5012176;28;20045;-81
2022/12/22 09:00:08;;;;;;;136.38;77.75;;;;;;;1.64;100.00;100112.38;4995737;28;20120;-82
2022/12/22 09:02:34;;;;;;;163.93;49.55;;;;;;;3.04;100.00;100130.13;5012939;28;20088;-80
2022/12/22 09:05:00;;;;;;;142.25;47.15;;;;;;;3.59;100.00;100095.97;4995909;28;20125;-80
2022/12/22 09:07:26;;;;;;;91.03;41.63;;;;;;;2.67;100.00;100139.13;4995900;28;20069;-79
2022/12/22 09:09:51;;;;;;;77.53;40.75;;;;;;;2.19;100.00;100181.41;5012564;28;20129;-81
2022/12/22 09:12:17;;;;;;;74.97;40.78;;;;;;;2.11;100.00;100184.66;5013068;28;20062;-80
2022/12/22 09:14:43;;;;;;;66.70;40.58;;;;;;;1.86;100.00;100177.75;4995675;28;20037;-80
2022/12/22 09:17:09;;;;;;;66.47;44.72;;;;;;;2.32;100.00;100165.63;5010017;28;20038;-81
2022/12/22 09:19:35;;;;;;;74.18;45.70;;;;;;;2.07;100.00;100115.28;5012830;28;20168;-81
2022/12/22 09:22:03;;;;;;;72.75;47.80;;;;;;;1.82;100.00;100079.16;5012555;28;20049;-79
2022/12/22 09:24:28;;;;;;;76.05;43.40;;;;;;;2.63;100.00;100087.25;4994427;28;20041;-79
2022/12/22 09:26:54;;;;;;;68.22;44.00;;;;;;;2.34;100.00;100155.59;4994291;28;20400;-79
2022/12/22 09:29:19;;;;;;;67.18;43.30;;;;;;;2.33;100.00;100078.72;4995263;28;20037;-78
2022/12/22 09:31:45;;;;;;;69.68;44.42;;;;;;;2.43;100.00;100078.78;5012361;28;20630;-78
2022/12/22 09:34:11;;;;;;;70.93;44.40;;;;;;;2.48;100.00;100128.97;5013425;28;20033;-78
2022/12/22 09:36:39;;;;;;;95.28;44.60;;;;;;;3.61;100.00;100141.19;4994493;28;20518;-79
2022/12/22 09:39:07;;;;;;;62.00;38.92;;;;;;;3.13;100.00;100140.19;4992876;28;20046;-80
2022/12/22 09:41:50;;;;;;;59.95;38.38;;;;;;;3.13;100.00;100132.66;5004857;28;20041;-75
2022/12/22 09:44:21;;;;;;;71.80;46.53;;;;;;;2.88;100.00;100132.53;5012978;28;20038;-78
2022/12/22 09:46:47;;;;;;;61.47;41.00;;;;;;;2.39;100.00;100052.00;5012404;28;20124;-74
2022/12/22 09:49:16;;;;;;;62.58;38.60;;;;;;;2.67;100.00;100046.28;4995732;28;20046;-79
2022/12/22 09:51:45;;;;;;;62.00;37.75;;;;;;;2.70;100.00;100052.13;5007135;28;20115;-78
2022/12/22 09:54:12;;;;;;;55.63;36.05;;;;;;;3.37;100.00;100112.66;4989299;28;20064;-79
2022/12/22 09:56:39;;;;;;;52.65;34.75;;;;;;;2.68;100.00;100022.03;4998995;28;20038;-79
2022/12/22 09:59:14;;;;;;;60.92;37.40;;;;;;;3.30;100.00;100092.56;4975078;28;20432;-79
2022/12/22 10:01:39;;;;;;;61.53;36.83;;;;;;;3.11;100.00;100025.53;4975582;28;20540;-80
2022/12/22 10:04:26;;;;;;;59.47;35.15;;;;;;;3.58;100.00;100108.53;4986025;28;20054;-78
2022/12/22 10:07:01;;;;;;;48.45;32.35;;;;;;;3.55;100.00;100106.84;5012271;28;20057;-79
2022/12/22 10:09:35;;;;;;;52.97;33.85;;;;;;;3.99;100.00;100094.34;5012184;28;20165;-79
2022/12/22 10:12:03;;;;;;;55.30;36.38;;;;;;;3.68;100.00;100082.59;4992086;28;20046;-79
2022/12/22 10:14:41;;;;;;;54.22;35.40;;;;;;;3.21;100.00;99961.94;5001119;28;20053;-79
2022/12/22 10:17:14;;;;;;;48.50;32.42;;;;;;;3.93;100.00;100102.72;5010809;28;20034;-79
2022/12/22 10:19:39;;;;;;;;;;;;;;;4.03;100.00;100089.31;4991720;28;20046;-83
2022/12/22 10:22:32;;;;;;;53.13;37.05;;;;;;;3.81;100.00;100087.63;5009360;28;19914;-78
2022/12/22 10:25:01;;;;;;;;;;;;;;;3.88;100.00;100070.88;5010959;28;20083;-78
2022/12/22 10:27:30;;;;;;;47.28;31.83;;;;;;;3.53;100.00;100011.38;4990035;28;20368;-79
2022/12/22 10:30:36;;;;;;;49.38;31.35;;;;;;;4.30;100.00;100065.81;4976231;28;20043;-78
2022/12/22 10:33:12;;;;;;;50.42;31.58;;;;;;;4.36;100.00;100063.28;4938008;29;20047;-79
2022/12/22 10:35:56;;;;;;;47.67;31.77;;;;;;;4.34;100.00;100064.97;4938392;29;20534;-80
2022/12/22 10:38:33;;;;;;;44.90;30.40;;;;;;;4.23;100.00;100046.53;4980965;28;20141;-80
2022/12/22 10:41:13;;;;;;;44.45;28.83;;;;;;;4.49;100.00;100059.06;4993524;28;20538;-78
2022/12/22 10:43:49;;;;;;;44.67;29.25;;;;;;;4.36;100.00;99981.09;5011117;28;20774;-79
2022/12/22 10:46:15;;;;;;;43.15;28.88;;;;;;;4.47;100.00;99970.16;4993928;28;20132;-76
2022/12/22 10:48:40;;;;;;;47.78;29.98;;;;;;;4.19;100.00;99975.28;4649427;28;10000323;-79
2022/12/22 10:51:08;;;;;;;47.15;30.58;;;;;;;4.81;100.00;100040.53;5010586;28;20041;-77
2022/12/22 10:53:48;;;;;;;43.10;28.35;;;;;;;4.58;100.00;100032.19;5013578;28;20042;-78
2022/12/22 10:56:31;;;;;;;45.78;29.88;;;;;;;4.80;100.00;100013.66;5013994;28;20129;-78
2022/12/22 10:59:29;;;;;;;44.13;30.00;;;;;;;5.00;100.00;100029.50;4997687;28;20041;-78
2022/12/22 11:02:20;;;;;;;44.58;30.88;;;;;;;4.93;100.00;100022.81;4995404;28;20105;-77
2022/12/22 11:04:46;;;;;;;46.03;30.88;;;;;;;4.99;100.00;100015.22;5014748;28;20041;-78
2022/12/22 11:07:12;;;;;;;38.78;27.42;;;;;;;5.25;100.00;100017.59;4997051;28;20145;-77
2022/12/22 11:09:37;;;;;;;40.97;27.27;;;;;;;4.65;100.00;99918.06;4992647;28;20042;-80
2022/12/22 11:12:22;;;;;;;42.60;29.75;;;;;;;5.39;100.00;100012.50;5013143;28;20038;-81
2022/12/22 11:15:02;;;;;;;40.58;25.50;;;;;;;4.97;100.00;99943.88;4997513;28;20208;-79
2022/12/22 11:17:42;;;;;;;36.35;24.48;;;;;;;5.23;100.00;100014.25;5014722;28;20042;-77
2022/12/22 11:20:41;;;;;;;35.28;23.23;;;;;;;4.94;100.00;99933.84;4996897;28;20567;-78
2022/12/22 11:23:21;;;;;;;36.65;26.92;;;;;;;5.48;100.00;99999.81;5008909;28;20038;-78
2022/12/22 11:25:55;;;;;;;38.13;25.83;;;;;;;5.70;100.00;100013.94;5014084;28;20052;-76
2022/12/22 11:28:38;;;;;;;41.75;28.23;;;;;;;5.69;100.00;100013.09;5013856;28;20096;-77
2022/12/22 11:31:13;;;;;;;44.40;28.17;;;;;;;5.69;100.00;100002.16;4996676;28;20044;-78
2022/12/22 11:34:15;;;;;;;42.40;28.70;;;;;;;5.71;100.00;99998.78;5014468;28;20479;-76
2022/12/22 11:37:07;;;;;;;43.78;31.45;;;;;;;5.85;100.00;99999.56;4994273;28;20050;-77
2022/12/22 11:39:38;;;;;;;44.67;30.45;;;;;;;5.96;100.00;99986.84;4963633;28;20680;-79
2022/12/22 11:45:03;;;;;;;34.87;25.83;;;;;;;6.02;100.00;99987.59;4495577;28;10000622;-77
2022/12/22 11:47:58;;;;;;;41.03;28.50;;;;;;;6.14;100.00;99986.66;5053605;28;20045;-77
2022/12/22 11:50:43;;;;;;;35.03;23.92;;;;;;;6.45;100.00;99977.91;5035094;28;20079;-74
2022/12/22 11:53:41;;;;;;;42.80;27.13;;;;;;;5.54;100.00;99854.41;5053104;28;20041;-77
2022/12/22 11:56:40;;;;;;;42.60;29.02;;;;;;;6.39;100.00;99962.84;5024595;28;20056;-75
2022/12/22 11:59:24;;;;;;;53.75;30.65;;;;;;;6.33;100.00;99973.00;5035432;28;20043;-77
2022/12/22 12:02:28;;;;;;;64.05;42.20;;;;;;;6.40;100.00;99959.44;5052801;28;20040;-80
2022/12/22 12:05:26;;;;;;;40.22;29.63;;;;;;;6.33;100.00;99969.63;5016329;28;20091;-77
2022/12/22 12:08:25;;;;;;;43.58;31.73;;;;;;;6.45;100.00;99962.75;5052550;28;20063;-74
2022/12/22 12:11:03;;;;;;;40.78;29.52;;;;;;;6.32;100.00;99940.22;5052669;28;20044;-76
2022/12/22 12:14:02;;;;;;;38.83;26.02;;;;;;;6.33;100.00;99957.84;5048301;28;20041;-78
2022/12/22 12:16:50;;;;;;;38.00;26.35;;;;;;;6.97;100.00;99957.88;5015473;28;20038;-78
2022/12/22 12:19:22;;;;;;;38.65;27.27;;;;;;;6.59;100.00;99955.03;5007364;28;20069;-75
2022/12/22 12:21:54;;;;;;;40.08;27.80;;;;;;;6.49;100.00;99921.47;5015468;28;20042;-75
2022/12/22 12:24:52;;;;;;;43.42;28.38;;;;;;;6.62;100.00;99910.34;5015263;28;20051;-75
2022/12/22 12:27:44;;;;;;;55.50;29.73;;;;;;;7.22;100.00;99948.25;4971301;28;20046;-76
2022/12/22 12:30:12;;;;;;;;;;;;;;;7.08;100.00;99957.72;4971661;28;20058;-79
2022/12/22 12:33:13;;;;;;;42.67;30.63;;;;;;;7.14;100.00;99950.88;5013729;28;19940;-81
2022/12/22 12:35:47;;;;;;;37.05;27.98;;;;;;;7.22;100.00;99959.19;4981804;28;20049;-78
2022/12/22 12:38:42;;;;;;;39.13;26.70;;;;;;;6.72;100.00;99901.81;5013682;28;20049;-71
2022/12/22 12:41:19;;;;;;;35.80;26.95;;;;;;;7.17;100.00;99973.56;5032171;28;20045;-74
2022/12/22 12:43:48;;;;;;;37.00;23.38;;;;;;;7.36;100.00;99959.81;5013654;28;20145;-75
2022/12/22 12:46:50;;;;;;;54.38;23.90;;;;;;;9.55;100.00;99925.84;5014523;28;20049;-75
2022/12/22 12:49:33;;;;;;;31.55;22.02;;;;;;;8.44;100.00;99944.41;5032145;28;20479;-76
2022/12/22 12:52:07;;;;;;;32.90;23.83;;;;;;;7.66;100.00;99961.03;5014382;28;20400;-76
2022/12/22 12:54:41;;;;;;;41.50;27.10;;;;;;;7.11;100.00;99887.72;5026862;28;20124;-73
2022/12/22 12:57:23;;;;;;;42.45;28.60;;;;;;;7.78;100.00;99963.38;5047961;28;20048;-75
2022/12/22 12:59:51;;;;;;;38.45;27.55;;;;;;;7.40;100.00;99946.28;5042853;28;20034;-75
2022/12/22 13:02:26;;;;;;;33.75;25.52;;;;;;;7.35;100.00;99952.28;5034736;28;20190;-76
2022/12/22 13:05:06;;;;;;;37.55;27.52;;;;;;;7.38;100.00;99954.75;5033592;28;20037;-73
2022/12/22 13:08:11;;;;;;;35.53;24.23;;;;;;;7.35;100.00;99949.75;5051996;28;20036;-73
2022/12/22 13:10:49;;;;;;;39.13;26.10;;;;;;;6.58;100.00;99830.44;5051788;28;20039;-75
2022/12/22 13:13:20;;;;;;;36.75;26.38;;;;;;;7.03;100.00;99956.09;5052199;28;20041;-73
2022/12/22 13:15:47;;;;;;;78.00;50.88;;;;;;;6.86;100.00;99919.28;5032193;28;20049;-74
2022/12/22 13:18:22;;;;;;;61.47;43.65;;;;;;;7.07;100.00;99958.59;5035533;28;20547;-74
2022/12/22 13:21:01;;;;;;;37.38;28.20;;;;;;;6.90;100.00;99941.97;5013242;28;20484;-75
2022/12/22 13:23:39;;;;;;;34.83;24.15;;;;;;;6.62;100.00;99887.63;5045624;28;20075;-73
2022/12/22 13:26:09;;;;;;;29.17;21.27;;;;;;;6.62;100.00;99890.16;5035848;28;20046;-74
2022/12/22 13:28:36;;;;;;;30.58;21.08;;;;;;;6.59;100.00;99879.25;5030345;28;20772;-73
2022/12/22 13:31:13;;;;;;;26.92;20.08;;;;;;;6.88;100.00;99925.16;5043264;28;20407;-73
2022/12/22 13:33:40;;;;;;;30.83;19.58;;;;;;;6.92;100.00;99932.69;5050278;28;20063;-73
2022/12/22 13:36:14;;;;;;;34.55;22.27;;;;;;;7.43;100.00;99872.03;5032847;28;20525;-71
2022/12/22 13:38:39;;;;;;;40.35;23.10;;;;;;;7.51;100.00;99865.16;5051902;28;20690;-72
2022/12/22 13:41:17;;;;;;;33.10;22.88;;;;;;;6.91;100.00;99948.69;5029115;28;20052;-72
2022/12/22 13:43:46;;;;;;;28.50;20.20;;;;;;;6.83;100.00;99935.31;5029919;28;20136;-72
2022/12/22 13:46:12;;;;;;;29.25;20.05;;;;;;;6.71;100.00;99915.31;5011941;28;20045;-71
2022/12/22 13:48:44;;;;;;;28.50;20.70;;;;;;;7.00;100.00;99924.97;5029285;28;20563;-72
2022/12/22 13:51:31;;;;;;;27.17;20.38;;;;;;;9.70;100.00;99785.03;5029817;28;20120;-73
2022/12/22 13:54:11;;;;;;;31.80;21.65;;;;;;;7.60;100.00;99929.09;5026112;28;20042;-75
2022/12/22 13:56:40;;;;;;;33.13;23.33;;;;;;;6.53;100.00;99867.56;5036185;28;20053;-74
2022/12/22 13:59:22;;;;;;;37.00;24.25;;;;;;;6.65;100.00;99922.97;5040518;28;20025;-75
2022/12/22 14:01:50;;;;;;;35.72;24.95;;;;;;;7.10;100.00;99839.75;5042013;28;20037;-72
2022/12/22 14:04:15;;;;;;;34.58;25.63;;;;;;;7.55;100.00;99914.81;5033510;28;20065;-71
2022/12/22 14:06:40;;;;;;;41.40;27.23;;;;;;;6.60;100.00;99907.00;5042302;28;20075;-69
2022/12/22 14:09:12;;;;;;;36.35;25.35;;;;;;;6.79;100.00;99905.91;5024672;28;20813;-70
2022/12/22 14:11:38;;;;;;;39.42;25.73;;;;;;;6.23;100.00;99834.28;5042702;28;20116;-71
2022/12/22 14:14:09;;;;;;;33.45;25.27;;;;;;;6.21;100.00;99846.09;5049359;28;20120;-69
2022/12/22 14:16:34;;;;;;;26.87;21.37;;;;;;;6.17;100.00;99837.75;5050163;28;20109;-69
2022/12/22 14:19:00;;;;;;;38.55;27.25;;;;;;;6.53;100.00;99892.81;5049903;28;20129;-69
2022/12/22 14:21:26;;;;;;;48.67;31.88;;;;;;;6.40;100.00;99911.47;5050186;28;20062;-68
2022/12/22 14:23:52;;;;;;;63.25;30.77;;;;;;;7.78;100.00;99890.78;5049906;28;20414;-68
2022/12/22 14:26:22;;;;;;;76.90;52.03;;;;;;;6.70;100.00;99913.63;5031716;28;20037;-68
2022/12/22 14:28:53;;;;;;;51.35;36.42;;;;;;;6.35;100.00;99870.31;5034360;28;20109;-70
2022/12/22 14:31:18;;;;;;;81.03;54.83;;;;;;;6.44;100.00;99914.81;5054510;28;20056;-70
2022/12/22 14:34:22;;;;;;;82.85;52.28;;;;;;;6.31;100.00;99918.31;5054472;28;20045;-69
2022/12/22 14:36:49;;;;;;;77.50;46.47;;;;;;;5.97;100.00;99847.22;5036612;28;20041;-70
2022/12/22 14:39:24;;;;;;;110.03;62.90;;;;;;;6.27;100.00;99887.25;5036540;28;20041;-70
2022/12/22 14:42:03;;;;;;;108.28;61.85;;;;;;;5.77;100.00;99847.44;5054086;28;20052;-73
2022/12/22 14:44:29;;;;;;;125.95;72.93;;;;;;;5.16;100.00;99790.94;5054659;28;20072;-73
2022/12/22 14:47:19;;;;;;;120.97;63.53;;;;;;;6.02;100.00;99911.91;5054152;28;20040;-73
2022/12/22 14:50:01;;;;;;;72.57;45.17;;;;;;;6.02;100.00;99921.19;5054564;28;20056;-73
2022/12/22 14:52:31;;;;;;;78.53;43.38;;;;;;;5.86;100.00;99917.16;5052713;28;20037;-74
2022/12/22 14:54:58;;;;;;;91.32;51.25;;;;;;;5.79;100.00;99898.69;5053560;28;20391;-74
2022/12/22 14:57:31;;;;;;;82.60;48.75;;;;;;;5.23;100.00;99818.56;5035254;28;20463;-71
2022/12/22 15:00:28;;;;;;;95.53;52.92;;;;;;;5.49;100.00;99905.69;5042688;28;20471;-73
2022/12/22 15:02:57;;;;;;;91.75;51.78;;;;;;;4.95;100.00;99831.41;5052620;28;20041;-72
2022/12/22 15:05:37;;;;;;;87.45;46.85;;;;;;;5.44;100.00;99897.34;5035857;28;20029;-71
2022/12/22 15:08:39;;;;;;;84.95;44.75;;;;;;;5.47;100.00;99912.47;5054571;28;20041;-71
2022/12/22 15:11:17;;;;;;;124.18;62.90;;;;;;;4.96;100.00;99849.03;5054587;28;20040;-71
2022/12/22 15:13:50;;;;;;;100.78;54.92;;;;;;;5.03;100.00;99838.03;5055144;28;20037;-70
2022/12/22 15:16:21;;;;;;;124.43;63.83;;;;;;;5.15;100.00;99918.56;5054150;28;20033;-73
2022/12/22 15:18:56;;;;;;;66.70;38.00;;;;;;;7.41;100.00;99838.34;5054643;28;20033;-72